Time;durP1;ratioP1;P1;durP2;ratioP2;P2;SDS_P1;SDS_P2;PMS_P1;PMS_P2;Temp;Humidity;BMP_temperature;BMP_pressure;BME280_temperature;BME280_humidity;BME280_pressure;Samples;Min_cycle;Max_cycle;Signal;HPM_P1;HPM_P2
2024/04/15 00:00:26;;;;;;;3.07;1.90;;;9.80;91.90;9.80;100392.00;;;;5308920;26;106584;-68
2024/04/15 00:02:52;;;;;;;2.47;1.40;;;9.80;92.00;9.80;100402.00;;;;5308476;26;93541;-68
2024/04/15 00:05:18;;;;;;;3.43;2.30;;;9.80;92.10;9.80;100397.00;;;;5308157;26;106458;-68
2024/04/15 00:07:43;;;;;;;5.03;1.37;;;9.90;92.30;9.80;100388.00;;;;5307790;26;114253;-68
2024/04/15 00:10:10;;;;;;;2.77;1.57;;;9.90;92.40;9.90;100391.00;;;;5306901;26;85358;-68
2024/04/15 00:12:35;;;;;;;3.30;1.10;;;9.90;92.50;9.90;100393.00;;;;5313479;26;89524;-67
2024/04/15 00:15:01;;;;;;;4.60;1.73;;;9.90;92.60;9.90;100393.00;;;;5304790;26;106782;-67
2024/04/15 00:17:27;;;;;;;1.70;1.07;;;9.90;92.70;9.90;100387.00;;;;5310553;26;114919;-68
2024/04/15 00:19:52;;;;;;;2.17;1.63;;;10.00;92.90;10.00;100385.00;;;;5307268;26;112996;-68
2024/04/15 00:22:18;;;;;;;3.43;1.37;;;10.00;92.90;10.00;100383.00;;;;5310368;26;95190;-67
2024/04/15 00:24:46;;;;;;;0.73;0.70;;;10.00;93.00;10.00;100383.00;;;;5312053;26;106388;-67
2024/04/15 00:27:12;;;;;;;1.33;1.27;;;10.00;93.10;10.00;100387.00;;;;5307468;26;85313;-68
2024/04/15 00:29:37;;;;;;;2.57;1.43;;;10.00;93.20;10.00;100378.00;;;;5308629;26;86233;-68
2024/04/15 00:32:03;;;;;;;3.00;1.63;;;10.00;93.30;10.00;100369.00;;;;5310056;26;108097;-68
2024/04/15 00:34:29;;;;;;;2.47;1.77;;;10.00;93.40;10.00;100353.00;;;;5305625;26;98432;-68
2024/04/15 00:36:55;;;;;;;3.27;2.50;;;10.00;93.50;10.00;100348.00;;;;5305536;26;115132;-68
2024/04/15 00:39:20;;;;;;;3.20;1.40;;;10.00;93.50;10.00;100348.00;;;;5309333;26;91988;-68
2024/04/15 00:41:46;;;;;;;3.50;1.83;;;10.10;93.70;10.10;100344.00;;;;5312051;26;103711;-68
2024/04/15 00:44:12;;;;;;;2.70;2.40;;;10.10;93.70;10.10;100353.00;;;;5314534;26;101686;-68
2024/04/15 00:46:38;;;;;;;3.07;2.10;;;10.20;93.80;10.20;100348.00;;;;5314838;26;85976;-68
2024/04/15 00:49:04;;;;;;;2.50;1.70;;;9.90;93.70;10.20;100346.00;;;;5311730;26;85688;-68
2024/04/15 00:51:30;;;;;;;2.30;1.70;;;10.30;94.00;10.20;100335.00;;;;5305409;26;107862;-68
2024/04/15 00:53:58;;;;;;;2.43;1.37;;;10.30;94.10;10.20;100353.00;;;;5308869;26;104981;-68
2024/04/15 00:56:24;;;;;;;2.43;1.03;;;10.30;94.10;10.20;100361.00;;;;5305872;26;114969;-68
2024/04/15 00:58:51;;;;;;;4.73;0.93;;;10.30;94.20;10.20;100353.00;;;;5309476;26;114030;-68
2024/04/15 01:01:17;;;;;;;1.67;1.00;;;10.30;94.30;10.20;100355.00;;;;5307351;26;108030;-68
2024/04/15 01:03:44;;;;;;;1.53;0.90;;;10.30;94.30;10.20;100356.00;;;;5307587;26;105290;-68
2024/04/15 01:06:09;;;;;;;5.20;1.13;;;10.30;94.40;10.30;100362.00;;;;5305140;26;85578;-68
2024/04/15 01:08:35;;;;;;;0.83;0.70;;;10.30;94.40;10.30;100366.00;;;;5306157;26;114327;-68
2024/04/15 01:11:01;;;;;;;1.60;1.10;;;10.30;94.40;10.30;100361.00;;;;5306649;26;108230;-68
2024/04/15 01:13:27;;;;;;;1.73;1.03;;;10.70;94.60;10.30;100349.00;;;;5307127;26;106478;-69
2024/04/15 01:15:59;;;;;;;0.93;0.80;;;10.40;94.50;10.30;100349.00;;;;5306484;26;113793;-69
2024/04/15 01:18:25;;;;;;;0.60;0.60;;;10.40;94.60;10.40;100353.00;;;;5310297;26;84390;-69
2024/04/15 01:20:59;;;;;;;1.10;1.00;;;10.40;94.60;10.40;100340.00;;;;5312073;26;84580;-68
2024/04/15 01:23:30;;;;;;;0.80;0.80;;;11.00;94.80;10.40;100334.00;;;;5361603;25;84417;-69
2024/04/15 01:25:56;;;;;;;2.50;0.80;;;10.50;94.80;10.50;100330.00;;;;5307999;26;87644;-69
2024/04/15 01:28:22;;;;;;;1.60;1.13;;;10.50;95.00;10.50;100336.00;;;;5306034;26;115399;-68
2024/04/15 01:30:47;;;;;;;2.03;0.73;;;10.50;95.10;10.50;100335.00;;;;5306278;26;104151;-68
2024/04/15 01:33:13;;;;;;;1.20;0.70;;;10.50;95.20;10.40;100335.00;;;;5305069;26;98225;-69
2024/04/15 01:35:39;;;;;;;0.90;0.87;;;10.50;95.30;10.40;100341.00;;;;5308387;26;97974;-68
2024/04/15 01:38:04;;;;;;;0.83;0.63;;;10.50;95.50;10.40;100338.00;;;;5309965;26;114381;-69
2024/04/15 01:40:30;;;;;;;2.50;1.13;;;10.40;95.70;10.30;100341.00;;;;5309043;26;107078;-69
2024/04/15 01:42:56;;;;;;;2.17;0.87;;;10.40;95.90;10.30;100335.00;;;;5310836;26;103781;-69
2024/04/15 01:45:22;;;;;;;1.80;0.97;;;10.40;96.20;10.30;100316.00;;;;5308590;26;114005;-69
2024/04/15 01:47:49;;;;;;;0.70;0.63;;;10.40;96.50;10.30;100302.00;;;;5308259;26;86750;-69
2024/04/15 01:50:16;;;;;;;0.97;0.80;;;10.40;96.80;10.30;100312.00;;;;5309979;26;85272;-69
2024/04/15 01:52:41;;;;;;;0.80;0.70;;;10.40;97.00;10.30;100313.00;;;;5309336;26;84249;-68
2024/04/15 01:55:07;;;;;;;2.40;1.07;;;10.40;97.30;10.30;100308.00;;;;5305944;26;88105;-69
2024/04/15 01:57:33;;;;;;;1.97;0.90;;;10.40;97.50;10.30;100301.00;;;;5306503;26;115021;-69
2024/04/15 01:59:59;;;;;;;0.87;0.67;;;10.40;97.80;10.30;100310.00;;;;5306409;26;107469;-69
2024/04/15 02:02:24;;;;;;;1.90;0.83;;;10.30;98.10;10.20;100295.00;;;;5305728;26;106871;-69
2024/04/15 02:04:53;;;;;;;1.23;0.80;;;10.30;98.40;10.10;100296.00;;;;5302188;26;114194;-68
2024/04/15 02:07:19;;;;;;;1.00;0.90;;;10.20;98.60;10.00;100293.00;;;;5307353;26;85695;-68
2024/04/15 02:09:44;;;;;;;1.13;1.10;;;10.20;99.00;9.90;100283.00;;;;5301153;26;84682;-68
2024/04/15 02:12:10;;;;;;;1.00;0.93;;;10.00;99.20;9.90;100303.00;;;;5303901;26;105677;-68
2024/04/15 02:14:36;;;;;;;0.63;0.57;;;10.00;99.60;9.80;100303.00;;;;5276194;26;85367;-69
2024/04/15 02:17:02;;;;;;;1.10;1.00;;;9.90;99.90;9.80;100293.00;;;;5308311;26;115043;-67
2024/04/15 02:19:31;;;;;;;1.40;0.70;;;9.90;99.90;9.80;100300.00;;;;5309166;26;98053;-67
2024/04/15 02:21:57;;;;;;;1.13;1.03;;;9.90;99.90;9.80;100295.00;;;;5309897;26;84985;-69
2024/04/15 02:24:23;;;;;;;2.47;1.73;;;9.90;99.90;9.80;100306.00;;;;5307459;26;107680;-69
2024/04/15 02:26:48;;;;;;;1.77;1.63;;;9.90;99.90;9.80;100311.00;;;;5307375;26;106920;-69
2024/04/15 02:29:14;;;;;;;1.53;0.90;;;9.90;99.90;9.80;100335.00;;;;5301842;26;108559;-69
2024/04/15 02:31:40;;;;;;;1.23;1.10;;;9.90;99.90;9.70;100334.00;;;;5308219;26;106172;-67
2024/04/15 02:34:05;;;;;;;3.17;1.07;;;9.80;99.90;9.70;100341.00;;;;5310763;26;114685;-67
2024/04/15 02:36:31;;;;;;;1.70;1.07;;;9.80;99.90;9.70;100332.00;;;;5306718;26;113838;-67
2024/04/15 02:38:57;;;;;;;1.60;1.03;;;9.80;99.90;9.70;100341.00;;;;5311624;26;85584;-67
2024/04/15 02:41:23;;;;;;;1.73;1.40;;;9.80;99.90;9.70;100338.00;;;;5301952;26;91466;-66
2024/04/15 02:43:49;;;;;;;1.67;1.17;;;9.70;99.90;9.60;100344.00;;;;5304396;26;114308;-66
2024/04/15 02:46:16;;;;;;;0.80;0.77;;;9.70;99.90;9.50;100334.00;;;;5301776;26;103849;-67
2024/04/15 02:48:42;;;;;;;0.80;0.80;;;9.60;99.90;9.50;100338.00;;;;5310735;26;84668;-66
2024/04/15 02:51:08;;;;;;;4.30;1.30;;;9.60;99.90;9.40;100340.00;;;;5300269;26;84397;-66
2024/04/15 02:53:34;;;;;;;6.13;1.23;;;9.50;99.90;9.40;100341.00;;;;5310192;26;89028;-66
2024/04/15 02:56:00;;;;;;;5.57;1.10;;;9.50;99.90;9.30;100344.00;;;;5307527;26;98815;-66
2024/04/15 02:58:26;;;;;;;2.07;1.00;;;9.40;99.90;9.30;100332.00;;;;5306684;26;107650;-65
2024/04/15 03:00:52;;;;;;;1.87;1.07;;;9.40;99.90;9.30;100335.00;;;;5312902;26;105807;-65
2024/04/15 03:03:17;;;;;;;2.57;0.93;;;9.40;99.90;9.30;100340.00;;;;5300730;26;116384;-65
2024/04/15 03:05:44;;;;;;;2.00;1.37;;;9.40;99.90;9.20;100338.00;;;;5302633;26;113730;-67
2024/04/15 03:08:09;;;;;;;1.17;0.70;;;9.30;99.90;9.20;100359.00;;;;5305190;26;84208;-64
2024/04/15 03:10:35;;;;;;;1.60;1.50;;;9.30;99.90;9.20;100350.00;;;;5301700;26;101043;-64
2024/04/15 03:13:01;;;;;;;0.60;0.60;;;9.30;99.90;9.20;100353.00;;;;5302536;26;113291;-66
2024/04/15 03:15:27;;;;;;;7.47;1.20;;;9.30;99.90;9.20;100362.00;;;;5301156;26;94022;-66
2024/04/15 03:17:52;;;;;;;2.43;1.00;;;9.30;99.90;9.20;100363.00;;;;5309348;26;84589;-66
2024/04/15 03:20:18;;;;;;;1.43;0.53;;;9.30;99.90;9.10;100360.00;;;;5309109;26;83906;-65
2024/04/15 03:22:51;;;;;;;1.20;0.70;;;9.20;99.90;9.10;100363.00;;;;5302786;26;115676;-65
2024/04/15 03:25:18;;;;;;;2.37;0.53;;;8.80;99.90;9.00;100357.00;;;;5301388;26;85026;-65
2024/04/15 03:27:48;;;;;;;0.50;0.50;;;9.20;99.90;9.00;100366.00;;;;5305503;26;86947;-63
2024/04/15 03:30:14;;;;;;;1.60;0.90;;;9.10;99.90;9.00;100366.00;;;;5310179;26;84434;-63
2024/04/15 03:32:39;;;;;;;2.40;0.80;;;9.10;99.90;9.00;100362.00;;;;5311767;26;85639;-63
2024/04/15 03:35:12;;;;;;;1.40;1.30;;;9.10;99.90;8.90;100354.00;;;;5296928;25;102337;-62
2024/04/15 03:37:38;;;;;;;1.27;0.60;;;9.00;99.90;8.90;100355.00;;;;5311950;26;84194;-63
2024/04/15 03:40:07;;;;;;;0.43;0.43;;;9.00;99.90;8.80;100347.00;;;;5307508;26;105982;-64
2024/04/15 03:42:33;;;;;;;0.80;0.50;;;9.00;99.90;8.80;100335.00;;;;5308782;26;105329;-64
2024/04/15 03:44:58;;;;;;;0.80;0.80;;;8.90;99.90;8.80;100344.00;;;;5307955;26;113901;-63
2024/04/15 03:47:24;;;;;;;1.83;1.57;;;8.90;99.90;8.70;100341.00;;;;5310674;26;108823;-63
2024/04/15 03:49:50;;;;;;;2.70;1.33;;;8.80;99.90;8.70;100343.00;;;;5308221;26;106033;-61
2024/04/15 03:52:15;;;;;;;2.30;0.90;;;8.80;99.90;8.60;100331.00;;;;5307347;26;114090;-61
2024/04/15 03:54:41;;;;;;;1.17;0.80;;;8.80;99.90;8.60;100336.00;;;;5309331;26;116038;-62
2024/04/15 03:57:07;;;;;;;2.40;1.23;;;8.70;99.90;8.60;100330.00;;;;5304618;26;106425;-62
2024/04/15 03:59:33;;;;;;;1.03;0.93;;;8.70;99.90;8.50;100326.00;;;;5307994;26;107410;-62
2024/04/15 04:01:58;;;;;;;1.00;0.90;;;8.60;99.90;8.50;100324.00;;;;5299110;25;85570;-63
2024/04/15 04:04:24;;;;;;;1.17;0.83;;;8.60;99.90;8.40;100325.00;;;;5307744;26;113400;-63
2024/04/15 04:06:49;;;;;;;1.30;1.07;;;8.50;99.90;8.40;100316.00;;;;5308165;26;107922;-65
2024/04/15 04:09:15;;;;;;;1.80;1.20;;;8.50;99.90;8.40;100308.00;;;;5304346;26;102120;-62
2024/04/15 04:11:41;;;;;;;1.80;1.57;;;8.50;99.90;8.40;100306.00;;;;5310028;26;113905;-65
2024/04/15 04:14:07;;;;;;;1.47;1.37;;;8.50;99.90;8.40;100293.00;;;;5308031;26;86211;-65
2024/04/15 04:16:33;;;;;;;0.90;0.87;;;8.50;99.90;8.40;100308.00;;;;5309095;26;108271;-64
2024/04/15 04:18:58;;;;;;;4.93;1.53;;;8.50;99.90;8.30;100303.00;;;;5307785;26;84862;-63
2024/04/15 04:21:24;;;;;;;1.60;0.90;;;8.50;99.90;8.30;100311.00;;;;5304530;26;113530;-64
2024/04/15 04:23:50;;;;;;;1.53;1.30;;;8.40;99.90;8.30;100297.00;;;;5301917;26;114096;-64
2024/04/15 04:26:15;;;;;;;3.23;1.90;;;8.40;99.90;8.30;100295.00;;;;5308939;26;106796;-62
2024/04/15 04:28:41;;;;;;;0.80;0.80;;;8.40;99.90;8.30;100295.00;;;;5301246;26;106332;-63
2024/04/15 04:31:07;;;;;;;1.60;1.10;;;8.40;99.90;8.30;100287.00;;;;5309450;26;91474;-64
2024/04/15 04:33:33;;;;;;;1.13;1.03;;;8.40;99.90;8.30;100288.00;;;;5306323;26;114046;-63
2024/04/15 04:35:59;;;;;;;1.20;0.97;;;8.40;99.90;8.30;100288.00;;;;5303769;26;85479;-63
2024/04/15 04:38:26;;;;;;;1.87;1.47;;;8.40;99.90;8.30;100280.00;;;;5304201;26;84726;-63
2024/04/15 04:40:59;;;;;;;2.83;1.20;;;8.30;99.90;8.20;100284.00;;;;5297729;26;86645;-63
2024/04/15 04:43:25;;;;;;;1.53;1.20;;;8.40;99.90;8.20;100283.00;;;;5308000;26;86290;-64
2024/04/15 04:45:52;;;;;;;2.37;1.27;;;8.30;99.90;8.20;100278.00;;;;5304397;26;84232;-64
2024/04/15 04:48:18;;;;;;;2.10;1.37;;;8.30;99.90;8.30;100276.00;;;;5302463;26;84295;-63
2024/04/15 04:50:44;;;;;;;1.17;1.07;;;8.40;99.90;8.30;100277.00;;;;5300056;26;97888;-63
2024/04/15 04:53:10;;;;;;;1.13;0.87;;;8.30;99.90;8.20;100274.00;;;;5306053;26;85327;-63
2024/04/15 04:55:37;;;;;;;3.07;2.27;;;8.30;99.90;8.20;100272.00;;;;5303904;26;108318;-63
2024/04/15 04:58:06;;;;;;;3.53;1.67;;;8.30;99.90;8.10;100270.00;;;;5309471;26;83716;-63
2024/04/15 05:00:32;;;;;;;3.47;1.47;;;8.80;99.90;8.10;100264.00;;;;5308762;26;86228;-62
2024/04/15 05:02:58;;;;;;;0.80;0.80;;;8.20;99.90;8.00;100255.00;;;;5300509;26;114728;-63
2024/04/15 05:05:24;;;;;;;1.90;1.33;;;8.20;99.90;8.00;100265.00;;;;5303054;26;108022;-62
2024/04/15 05:07:50;;;;;;;1.50;1.00;;;8.10;99.90;8.00;100260.00;;;;5301297;26;104181;-63
2024/04/15 05:10:16;;;;;;;2.73;2.10;;;8.10;99.90;7.90;100252.00;;;;5302510;26;114308;-63
2024/04/15 05:12:42;;;;;;;1.53;1.20;;;8.10;99.90;7.90;100241.00;;;;5307028;26;86163;-62
2024/04/15 05:15:08;;;;;;;2.17;1.43;;;8.00;99.90;8.00;100233.00;;;;5303288;26;85635;-63
2024/04/15 05:17:34;;;;;;;3.73;2.87;;;8.00;99.90;8.00;100242.00;;;;5308624;26;106168;-62
2024/04/15 05:20:00;;;;;;;2.60;2.00;;;8.50;99.90;8.00;100248.00;;;;5305422;26;115388;-64
2024/04/15 05:22:26;;;;;;;1.83;1.67;;;8.00;99.90;8.00;100236.00;;;;5301722;26;98319;-63
2024/04/15 05:24:53;;;;;;;6.47;1.63;;;8.10;99.90;7.90;100231.00;;;;5297790;26;94685;-63
2024/04/15 05:27:19;;;;;;;1.87;1.20;;;8.10;99.90;8.00;100231.00;;;;5301851;26;84187;-63
2024/04/15 05:29:45;;;;;;;5.80;3.07;;;8.00;99.90;8.00;100234.00;;;;5300805;26;113295;-62
2024/04/15 05:32:11;;;;;;;1.43;1.33;;;8.10;99.90;8.00;100228.00;;;;5300614;26;86399;-65
2024/04/15 05:34:37;;;;;;;1.20;1.00;;;8.10;99.90;8.00;100232.00;;;;5304318;26;108355;-65
2024/04/15 05:37:05;;;;;;;1.67;1.30;;;8.10;99.90;8.00;100228.00;;;;5309248;26;85255;-63
2024/04/15 05:39:31;;;;;;;1.80;1.70;;;8.10;99.90;8.00;100228.00;;;;5305294;26;85135;-62
2024/04/15 05:41:57;;;;;;;2.33;1.50;;;8.10;99.90;8.10;100216.00;;;;5305929;26;92607;-63
2024/04/15 05:44:22;;;;;;;2.47;2.20;;;8.20;99.90;8.10;100216.00;;;;5302926;26;90312;-63
2024/04/15 05:46:50;;;;;;;2.70;1.80;;;8.10;99.90;8.10;100214.00;;;;5308511;26;107580;-64
2024/04/15 05:49:16;;;;;;;3.57;2.03;;;8.20;99.90;8.10;100215.00;;;;5305982;26;85555;-66
2024/04/15 05:51:44;;;;;;;1.47;1.20;;;8.20;99.90;8.20;100200.00;;;;5303730;26;86004;-63
2024/04/15 05:54:10;;;;;;;1.57;1.27;;;8.30;99.90;8.20;100214.00;;;;5303934;26;85512;-64
2024/04/15 05:56:35;;;;;;;2.77;1.33;;;8.30;99.90;8.20;100195.00;;;;5302432;26;104491;-64
2024/04/15 05:59:01;;;;;;;1.57;1.37;;;8.30;99.90;8.20;100202.00;;;;5302485;26;114474;-64
2024/04/15 06:01:27;;;;;;;1.27;1.03;;;8.30;99.90;8.20;100194.00;;;;5304700;26;115274;-64
2024/04/15 06:03:52;;;;;;;1.73;1.50;;;8.80;99.90;8.30;100198.00;;;;5300315;26;108071;-64
2024/04/15 06:06:18;;;;;;;1.33;0.90;;;8.40;99.90;8.30;100186.00;;;;5302043;26;84641;-64
2024/04/15 06:08:44;;;;;;;2.77;1.10;;;8.30;99.90;8.40;100190.00;;;;5299070;26;112554;-63
2024/04/15 06:11:09;;;;;;;6.07;1.57;;;8.40;99.90;8.40;100197.00;;;;5298264;26;114647;-63
2024/04/15 06:13:35;;;;;;;2.30;1.63;;;8.40;99.90;8.40;100194.00;;;;5307268;26;107831;-63
2024/04/15 06:16:01;;;;;;;2.30;1.30;;;8.50;99.90;8.40;100188.00;;;;5306590;26;84768;-63
2024/04/15 06:18:26;;;;;;;2.53;1.87;;;8.50;99.90;8.40;100186.00;;;;5298463;26;116470;-64
2024/04/15 06:20:52;;;;;;;2.70;1.13;;;8.50;99.90;8.40;100185.00;;;;5298551;26;114481;-66
2024/04/15 06:23:18;;;;;;;1.27;0.90;;;8.50;99.90;8.40;100175.00;;;;5302054;26;110001;-64
2024/04/15 06:25:50;;;;;;;5.80;1.60;;;8.50;99.90;8.40;100164.00;;;;5300966;26;106265;-63
2024/04/15 06:28:15;;;;;;;1.00;0.87;;;8.50;99.90;8.40;100167.00;;;;5304945;26;85374;-64
2024/04/15 06:30:41;;;;;;;2.23;1.20;;;8.50;99.90;8.40;100159.00;;;;5301922;26;114832;-64
2024/04/15 06:33:07;;;;;;;4.47;1.27;;;8.50;99.90;8.40;100155.00;;;;5301256;26;107375;-64
2024/04/15 06:35:32;;;;;;;4.10;1.37;;;8.50;99.90;8.50;100164.00;;;;5303692;26;106086;-63
2024/04/15 06:37:58;;;;;;;2.53;1.43;;;8.50;99.90;8.50;100158.00;;;;5297082;26;114895;-63
2024/04/15 06:40:24;;;;;;;1.70;1.33;;;8.60;99.90;8.50;100155.00;;;;5300016;26;113588;-63
2024/04/15 06:42:50;;;;;;;1.77;1.67;;;8.60;99.90;8.60;100150.00;;;;5300056;26;85688;-63
2024/04/15 06:45:16;;;;;;;1.47;1.37;;;8.60;99.90;8.60;100146.00;;;;5299788;26;106370;-63
2024/04/15 06:47:41;;;;;;;1.63;1.53;;;8.70;99.90;8.70;100141.00;;;;5299906;26;115625;-63
2024/04/15 06:50:07;;;;;;;2.10;1.90;;;8.70;99.90;8.90;100125.00;;;;5301233;26;114812;-64
2024/04/15 06:52:33;;;;;;;4.60;2.07;;;8.80;99.90;9.00;100115.00;;;;5297739;26;84289;-63
2024/04/15 06:54:58;;;;;;;3.10;1.23;;;9.00;99.90;9.00;100113.00;;;;5303437;26;106289;-63
2024/04/15 06:57:25;;;;;;;2.27;1.20;;;9.00;99.90;9.00;100104.00;;;;5300277;26;109211;-64
2024/04/15 06:59:50;;;;;;;1.40;1.23;;;9.10;99.90;9.00;100102.00;;;;5308921;26;110859;-63
2024/04/15 07:02:20;;;;;;;2.53;1.50;;;9.10;99.90;9.10;100104.00;;;;5304636;26;108398;-62
2024/04/15 07:04:51;;;;;;;1.53;1.40;;;9.20;99.90;9.30;100099.00;;;;5305767;26;85049;-63
2024/04/15 07:07:17;;;;;;;2.47;1.53;;;9.20;99.90;9.40;100102.00;;;;5307309;26;86646;-64
2024/04/15 07:09:43;;;;;;;3.27;1.00;;;9.40;99.90;9.60;100093.00;;;;5307630;26;86418;-63
2024/04/15 07:12:09;;;;;;;1.80;1.63;;;9.60;99.90;9.70;100094.00;;;;5301419;26;100740;-63
2024/04/15 07:14:36;;;;;;;1.30;1.20;;;9.80;99.90;10.00;100096.00;;;;5306525;25;84465;-63
2024/04/15 07:17:03;;;;;;;1.73;1.63;;;10.00;99.90;10.30;100098.00;;;;5304577;26;85727;-63
2024/04/15 07:19:28;;;;;;;1.30;1.03;;;10.20;99.90;10.60;100087.00;;;;5307792;26;85120;-62
2024/04/15 07:21:54;;;;;;;1.40;1.17;;;10.50;99.90;10.90;100087.00;;;;5308672;26;107387;-62
2024/04/15 07:24:19;;;;;;;1.23;0.97;;;10.80;99.90;11.10;100087.00;;;;5306336;26;106208;-60
2024/04/15 07:26:45;;;;;;;1.20;1.00;;;11.00;99.90;11.30;100099.00;;;;5305245;26;115161;-62
2024/04/15 07:29:11;;;;;;;2.13;1.20;;;11.30;99.90;11.40;100097.00;;;;5301940;26;115026;-62
2024/04/15 07:31:39;;;;;;;1.00;0.90;;;11.40;99.90;11.40;100100.00;;;;5302571;26;106710;-62
2024/04/15 07:34:05;;;;;;;1.17;1.07;;;11.50;99.90;11.50;100088.00;;;;5307804;26;84227;-61
2024/04/15 07:36:31;;;;;;;1.67;1.33;;;11.60;99.90;11.70;100096.00;;;;5301742;26;102202;-61
2024/04/15 07:38:56;;;;;;;1.13;0.97;;;11.70;99.90;11.80;100096.00;;;;5309610;26;112987;-62
2024/04/15 07:41:22;;;;;;;1.27;1.10;;;11.80;99.90;12.10;100092.00;;;;5309622;26;106679;-61
2024/04/15 07:43:48;;;;;;;1.33;1.13;;;11.80;99.90;12.50;100095.00;;;;5305332;26;104985;-62
2024/04/15 07:46:14;;;;;;;1.23;1.13;;;12.40;99.90;12.80;100074.00;;;;5304118;26;115248;-62
2024/04/15 07:48:40;;;;;;;1.03;0.93;;;12.70;99.90;13.10;100080.00;;;;5306281;26;100830;-62
2024/04/15 07:51:05;;;;;;;2.27;1.03;;;13.00;99.90;13.40;100090.00;;;;5305001;26;84534;-62
2024/04/15 07:53:31;;;;;;;1.73;1.43;;;13.40;99.90;13.70;100085.00;;;;5305210;26;105235;-62
2024/04/15 07:55:57;;;;;;;0.70;0.70;;;13.60;99.90;13.90;100090.00;;;;5306415;26;115041;-62
2024/04/15 07:58:22;;;;;;;1.20;0.93;;;13.90;99.90;14.30;100084.00;;;;5299519;26;116175;-62
2024/04/15 08:00:48;;;;;;;1.23;1.13;;;14.20;99.90;14.60;100087.00;;;;5300337;26;106541;-61
2024/04/15 08:03:14;;;;;;;0.85;0.85;;;14.50;99.90;14.70;100085.00;;;;5300358;26;105688;-62
2024/04/15 08:05:40;;;;;;;2.60;0.68;;;14.70;99.90;14.90;100094.00;;;;5305340;26;111569;-62
2024/04/15 08:08:06;;;;;;;0.60;0.57;;;14.90;99.90;15.10;100089.00;;;;5299912;26;113979;-63
2024/04/15 08:10:32;;;;;;;0.80;0.80;;;15.10;99.90;15.20;100086.00;;;;5301446;26;97269;-61
2024/04/15 08:12:58;;;;;;;0.77;0.60;;;15.20;99.90;15.20;100081.00;;;;5310757;26;84252;-62
2024/04/15 08:15:24;;;;;;;3.60;0.93;;;15.20;99.90;15.00;100076.00;;;;5305299;26;113187;-62
2024/04/15 08:17:49;;;;;;;0.82;0.77;;;15.10;99.90;14.80;100073.00;;;;5306221;26;112973;-62
2024/04/15 08:20:15;;;;;;;0.73;0.73;;;14.90;99.90;14.70;100079.00;;;;5307485;26;85495;-63
2024/04/15 08:22:43;;;;;;;0.57;0.57;;;14.80;99.90;14.70;100066.00;;;;5308293;26;106564;-63
2024/04/15 08:25:09;;;;;;;4.32;1.08;;;14.70;99.90;14.60;100057.00;;;;5309344;26;85815;-62
2024/04/15 08:27:36;;;;;;;1.45;1.00;;;14.60;99.90;14.50;100067.00;;;;5308477;26;99768;-63
2024/04/15 08:30:01;;;;;;;0.40;0.40;;;14.50;99.90;14.60;100060.00;;;;5307228;26;101281;-63
2024/04/15 08:32:27;;;;;;;0.60;0.60;;;14.50;99.90;14.60;100059.00;;;;5301166;26;88960;-62
2024/04/15 08:34:54;;;;;;;0.75;0.70;;;14.60;99.90;14.60;100073.00;;;;5309605;26;84467;-62
2024/04/15 08:37:19;;;;;;;0.82;0.50;;;14.60;99.90;14.60;100061.00;;;;5303625;26;84246;-62
2024/04/15 08:39:45;;;;;;;0.77;0.68;;;14.60;99.80;14.50;100061.00;;;;5306661;26;106836;-63
2024/04/15 08:42:45;;;;;;;0.85;0.65;;;14.50;99.00;14.40;100056.00;;;;5305723;26;84260;-62
2024/04/15 08:45:23;;;;;;;0.20;0.20;;;14.40;99.20;14.40;100047.00;;;;5302694;26;85877;-62
2024/04/15 08:47:52;;;;;;;0.60;0.60;;;14.30;99.10;14.40;100049.00;;;;5301446;26;86269;-62
2024/04/15 08:50:22;;;;;;;4.95;0.70;;;14.30;99.40;14.40;100045.00;;;;5302867;26;84321;-63
2024/04/15 08:52:53;;;;;;;0.30;0.30;;;14.30;99.40;14.40;100051.00;;;;5302962;26;87453;-61
2024/04/15 08:55:23;;;;;;;0.50;0.43;;;14.40;99.00;14.40;100047.00;;;;5302436;26;85318;-62
2024/04/15 08:57:50;;;;;;;0.20;0.20;;;14.30;98.70;14.40;100050.00;;;;5304208;26;87799;-63
2024/04/15 09:00:19;;;;;;;0.47;0.40;;;14.30;98.50;14.40;100046.00;;;;5308168;26;84306;-63
2024/04/15 09:02:46;;;;;;;0.40;0.40;;;14.30;98.00;14.40;100044.00;;;;5303779;26;83755;-63
2024/04/15 09:05:12;;;;;;;2.33;0.40;;;14.30;97.70;14.40;100044.00;;;;5304716;26;85797;-63
2024/04/15 09:07:41;;;;;;;0.22;0.20;;;14.30;96.90;14.40;100039.00;;;;5311455;25;107930;-63
2024/04/15 09:10:07;;;;;;;0.95;0.35;;;14.40;97.00;14.50;100040.00;;;;5302367;26;108868;-63
2024/04/15 09:12:41;;;;;;;0.95;0.50;;;14.40;96.70;14.60;100026.00;;;;5304742;26;84502;-61
2024/04/15 09:15:13;;;;;;;0.43;0.43;;;14.40;96.70;14.70;100027.00;;;;5308611;26;85419;-61
2024/04/15 09:17:39;;;;;;;0.43;0.35;;;14.50;97.20;14.90;100028.00;;;;5306651;26;85699;-63
2024/04/15 09:20:06;;;;;;;0.38;0.20;;;14.70;97.00;15.00;100028.00;;;;5302308;26;85626;-62
2024/04/15 09:22:34;;;;;;;0.95;0.55;;;14.90;96.60;15.20;100016.00;;;;5360554;25;84462;-62
2024/04/15 09:25:03;;;;;;;0.10;0.10;;;15.00;96.60;15.20;100019.00;;;;5307306;26;102908;-62
2024/04/15 09:27:29;;;;;;;0.55;0.50;;;15.10;95.30;15.30;100016.00;;;;5301517;26;85418;-63
2024/04/15 09:29:58;;;;;;;2.10;0.50;;;15.10;94.70;15.20;100002.00;;;;5308982;26;84406;-62
2024/04/15 09:32:23;;;;;;;0.15;0.13;;;15.10;94.10;15.10;100009.00;;;;5306287;26;84380;-63
2024/04/15 09:35:01;;;;;;;1.58;0.50;;;15.00;94.50;15.10;100009.00;;;;5301546;26;115420;-63
2024/04/15 09:37:28;;;;;;;1.60;0.30;;;15.00;94.30;15.10;99993.00;;;;5303468;26;99835;-63
2024/04/15 09:39:55;;;;;;;0.45;0.45;;;14.80;94.00;15.10;99994.00;;;;5304944;26;84608;-64
2024/04/15 09:42:21;;;;;;;0.70;0.40;;;15.00;94.00;15.10;99992.00;;;;5304473;26;84903;-63
2024/04/15 09:44:50;;;;;;;0.30;0.30;;;15.00;93.90;15.10;99978.00;;;;5308626;26;114801;-64
2024/04/15 09:47:17;;;;;;;0.52;0.20;;;15.00;94.10;15.00;99976.00;;;;5300932;26;84772;-64
2024/04/15 09:49:46;;;;;;;0.30;0.30;;;15.00;93.70;14.90;99974.00;;;;5308132;26;88069;-63
2024/04/15 09:52:30;;;;;;;0.20;0.20;;;14.90;93.50;14.80;99967.00;;;;5305718;26;83886;-64
2024/04/15 09:55:05;;;;;;;0.77;0.45;;;14.80;93.90;14.90;99962.00;;;;5300979;26;84969;-63
2024/04/15 09:57:40;;;;;;;0.20;0.20;;;14.80;94.00;14.90;99963.00;;;;5304394;26;84914;-64
2024/04/15 10:00:13;;;;;;;1.98;0.47;;;14.80;94.00;14.90;99944.00;;;;5305164;26;85227;-65
2024/04/15 10:02:46;;;;;;;0.17;0.17;;;14.80;93.70;14.80;99944.00;;;;5306787;26;84362;-64
2024/04/15 10:05:22;;;;;;;0.65;0.40;;;14.80;93.60;14.70;99951.00;;;;5296731;26;105531;-64
2024/04/15 10:07:52;;;;;;;0.20;0.20;;;14.70;93.30;14.60;99946.00;;;;5304018;26;85273;-64
2024/04/15 10:10:19;;;;;;;0.30;0.20;;;14.60;93.60;14.60;99936.00;;;;5306683;26;84500;-64
2024/04/15 10:12:50;;;;;;;0.38;0.20;;;14.50;93.80;14.70;99927.00;;;;5304554;26;84421;-64
2024/04/15 10:15:21;;;;;;;0.30;0.28;;;14.60;94.00;14.70;99926.00;;;;5361424;25;98491;-63
2024/04/15 10:18:08;;;;;;;0.52;0.32;;;14.60;93.80;14.70;99931.00;;;;5360970;25;96021;-63
2024/04/15 10:20:37;;;;;;;0.50;0.50;;;14.60;94.00;14.70;99926.00;;;;5304965;26;97614;-63
2024/04/15 10:23:08;;;;;;;1.03;0.57;;;14.70;93.60;14.70;99930.00;;;;5308781;26;84580;-63
2024/04/15 10:25:35;;;;;;;0.82;0.50;;;14.60;93.70;14.70;99924.00;;;;5307355;26;86931;-64
2024/04/15 10:28:01;;;;;;;0.30;0.30;;;14.60;93.80;14.70;99914.00;;;;5303204;26;84834;-63
2024/04/15 10:30:30;;;;;;;0.65;0.40;;;14.60;93.60;14.80;99916.00;;;;5302399;26;84754;-64
2024/04/15 10:33:02;;;;;;;0.20;0.20;;;14.70;93.70;15.00;99911.00;;;;5309313;26;85346;-64
2024/04/15 10:35:28;;;;;;;0.40;0.40;;;14.80;93.70;15.20;99898.00;;;;5301956;26;86421;-63
2024/04/15 10:37:59;;;;;;;0.30;0.30;;;14.90;93.80;15.30;99899.00;;;;5308515;26;85205;-64
2024/04/15 10:40:38;;;;;;;4.55;0.75;;;15.20;93.50;15.50;99887.00;;;;5304399;26;84611;-64
2024/04/15 10:43:05;;;;;;;0.70;0.43;;;15.30;93.40;15.70;99883.00;;;;5360811;25;84031;-64
2024/04/15 10:45:32;;;;;;;0.28;0.28;;;15.50;93.20;15.90;99885.00;;;;5305326;26;85015;-64
2024/04/15 10:47:57;;;;;;;0.47;0.47;;;15.60;93.40;16.30;99871.00;;;;5301988;26;104314;-63
2024/04/15 10:50:23;;;;;;;0.40;0.40;;;15.90;93.60;16.80;99861.00;;;;5300088;26;107193;-64